Time;durP1;ratioP1;P1;durP2;ratioP2;P2;SDS_P1;SDS_P2;PMS_P1;PMS_P2;Temp;Humidity;BMP_temperature;BMP_pressure;BME280_temperature;BME280_humidity;BME280_pressure;Samples;Min_cycle;Max_cycle;Signal;HPM_P1;HPM_P2
2022/05/17 00:01:26;;;;;;;;;;;16.50;99.90;;;;;;5073293;28;19931;-69
2022/05/17 00:03:51;;;;;;;;;;;16.50;99.90;;;;;;5073398;28;19908;-68
2022/05/17 00:06:17;;;;;;;;;;;16.60;99.90;;;;;;5073258;28;19962;-68
2022/05/17 00:08:42;;;;;;;;;;;16.60;99.90;;;;;;5073092;28;19974;-68
2022/05/17 00:11:10;;;;;;;;;;;16.60;99.90;;;;;;5072514;28;19919;-68
2022/05/17 00:13:35;;;;;;;;;;;16.50;99.90;;;;;;5072859;28;20429;-68
2022/05/17 00:16:01;;;;;;;;;;;16.50;99.90;;;;;;5073021;28;19909;-68
2022/05/17 00:18:26;;;;;;;;;;;16.40;99.90;;;;;;5072612;28;19916;-69
2022/05/17 00:20:52;;;;;;;;;;;16.40;99.90;;;;;;5072397;28;19948;-68
2022/05/17 00:23:17;;;;;;;;;;;16.30;99.90;;;;;;5072795;28;20302;-69
2022/05/17 00:25:47;;;;;;;;;;;16.20;99.90;;;;;;5072993;28;20297;-68
2022/05/17 00:28:14;;;;;;;;;;;16.20;99.90;;;;;;5072680;28;19923;-68
2022/05/17 00:30:40;;;;;;;;;;;16.30;99.90;;;;;;5072276;28;20017;-68
2022/05/17 00:33:05;;;;;;;;;;;16.20;99.90;;;;;;5072802;28;19908;-68
2022/05/17 00:35:31;;;;;;;;;;;16.20;99.90;;;;;;5072489;28;19912;-67
2022/05/17 00:37:56;;;;;;;;;;;16.10;99.90;;;;;;5072570;28;19924;-68
2022/05/17 00:40:22;;;;;;;;;;;16.20;99.90;;;;;;5078007;28;19916;-68
2022/05/17 00:42:47;;;;;;;;;;;16.10;99.90;;;;;;5079184;28;20003;-68
2022/05/17 00:45:13;;;;;;;;;;;16.00;99.90;;;;;;5073617;28;20437;-69
2022/05/17 00:47:41;;;;;;;;;;;16.00;99.90;;;;;;5072949;28;20443;-68
2022/05/17 00:50:12;;;;;;;;;;;16.10;99.90;;;;;;5072906;28;19912;-69
2022/05/17 00:52:52;;;;;;;;;;;16.20;99.90;;;;;;5073028;28;19913;-69
2022/05/17 00:55:26;;;;;;;;;;;16.20;99.90;;;;;;5072966;28;20374;-68
2022/05/17 00:57:55;;;;;;;;;;;16.10;99.90;;;;;;5072082;28;19920;-68
2022/05/17 01:00:20;;;;;;;;;;;16.10;99.90;;;;;;5072572;28;19908;-69
2022/05/17 01:02:51;;;;;;;;;;;16.00;99.90;;;;;;5072853;28;19915;-68
2022/05/17 01:05:17;;;;;;;;;;;16.00;99.90;;;;;;5072665;28;20297;-69
2022/05/17 01:07:46;;;;;;;;;;;16.00;99.90;;;;;;5072068;28;19912;-68
2022/05/17 01:10:12;;;;;;;;;;;16.00;99.90;;;;;;5072019;28;20325;-69
2022/05/17 01:12:38;;;;;;;;;;;16.10;99.90;;;;;;5072070;28;19909;-69
2022/05/17 01:15:06;;;;;;;;;;;16.20;99.90;;;;;;5054196;28;19908;-68
2022/05/17 01:17:33;;;;;;;;;;;16.20;99.90;;;;;;5071782;28;19913;-68
2022/05/17 01:19:59;;;;;;;;;;;16.30;99.90;;;;;;5071917;28;19908;-68
2022/05/17 01:22:25;;;;;;;;;;;16.40;99.90;;;;;;5072034;28;19919;-69
2022/05/17 01:24:50;;;;;;;;;;;16.40;99.90;;;;;;5072282;28;19914;-68
2022/05/17 01:27:19;;;;;;;;;;;16.40;99.90;;;;;;5053842;28;20288;-68
2022/05/17 01:29:45;;;;;;;;;;;16.20;99.90;;;;;;5071814;28;19917;-69
2022/05/17 01:32:12;;;;;;;;;;;16.00;99.90;;;;;;5072095;28;19912;-68
2022/05/17 01:34:38;;;;;;;;;;;15.70;99.90;;;;;;5072041;28;20011;-69
2022/05/17 01:37:04;;;;;;;;;;;15.60;99.90;;;;;;5072002;28;20361;-68
2022/05/17 01:39:30;;;;;;;;;;;15.70;99.90;;;;;;5071660;28;19961;-68
2022/05/17 01:41:55;;;;;;;;;;;15.70;99.90;;;;;;5072084;28;19995;-68
2022/05/17 01:44:21;;;;;;;;;;;15.60;99.90;;;;;;5071687;28;20503;-68
2022/05/17 01:46:46;;;;;;;;;;;15.70;99.90;;;;;;5072071;28;20381;-69
2022/05/17 01:49:12;;;;;;;;;;;15.80;99.90;;;;;;5071141;28;19920;-68
2022/05/17 01:51:37;;;;;;;;;;;15.90;99.90;;;;;;5071701;28;19912;-69
2022/05/17 01:54:03;;;;;;;;;;;16.10;99.90;;;;;;5071831;28;19948;-69
2022/05/17 01:56:28;;;;;;;;;;;16.10;99.90;;;;;;5071747;28;19909;-69
2022/05/17 01:58:53;;;;;;;;;;;16.20;99.90;;;;;;5071515;28;19922;-68
2022/05/17 02:01:19;;;;;;;;;;;16.10;99.90;;;;;;5071401;28;19919;-68
2022/05/17 02:03:44;;;;;;;;;;;16.00;99.90;;;;;;5071727;28;19920;-68
2022/05/17 02:06:10;;;;;;;;;;;16.00;99.90;;;;;;5071894;28;19915;-68
2022/05/17 02:08:35;;;;;;;;;;;16.00;99.90;;;;;;5071750;28;20412;-69
2022/05/17 02:11:01;;;;;;;;;;;16.10;99.90;;;;;;5072791;28;20456;-69
2022/05/17 02:13:27;;;;;;;;;;;16.10;99.90;;;;;;5075245;28;20355;-69
2022/05/17 02:15:52;;;;;;;;;;;16.10;99.90;;;;;;5075298;28;20333;-69
2022/05/17 02:18:18;;;;;;;;;;;16.20;99.90;;;;;;5075564;28;19973;-68
2022/05/17 02:20:43;;;;;;;;;;;16.10;99.90;;;;;;5074720;28;19921;-68
2022/05/17 02:23:08;;;;;;;;;;;16.10;99.90;;;;;;5075413;28;19909;-68
2022/05/17 02:25:35;;;;;;;;;;;15.90;99.90;;;;;;5075104;28;19913;-68
2022/05/17 02:28:00;;;;;;;;;;;15.80;99.90;;;;;;5074982;28;20364;-68
2022/05/17 02:30:26;;;;;;;;;;;15.90;99.90;;;;;;5074627;28;20001;-69
2022/05/17 02:32:51;;;;;;;;;;;16.00;99.90;;;;;;5075160;28;19909;-69
2022/05/17 02:35:17;;;;;;;;;;;16.00;99.90;;;;;;5075093;28;19962;-69
2022/05/17 02:37:42;;;;;;;;;;;16.10;99.90;;;;;;5074748;28;20342;-69
2022/05/17 02:40:08;;;;;;;;;;;16.20;99.90;;;;;;5074724;28;19912;-69
2022/05/17 02:42:33;;;;;;;;;;;16.10;99.90;;;;;;5075076;28;19913;-69
2022/05/17 02:44:59;;;;;;;;;;;16.10;99.90;;;;;;5074667;28;19921;-69
2022/05/17 02:47:24;;;;;;;;;;;16.10;99.90;;;;;;5074541;28;19913;-69
2022/05/17 02:49:50;;;;;;;;;;;16.10;99.90;;;;;;5074541;28;19913;-69
2022/05/17 02:52:16;;;;;;;;;;;16.00;99.90;;;;;;5074939;28;19931;-69
2022/05/17 02:54:41;;;;;;;;;;;15.90;99.90;;;;;;5074546;28;19908;-68
2022/05/17 02:57:07;;;;;;;;;;;15.90;99.90;;;;;;5074368;28;19913;-69
2022/05/17 02:59:32;;;;;;;;;;;15.90;99.90;;;;;;5074370;28;19916;-68
2022/05/17 03:01:59;;;;;;;;;;;16.00;99.90;;;;;;5074626;28;20003;-69
2022/05/17 03:04:26;;;;;;;;;;;16.00;99.90;;;;;;5074528;28;19913;-68
2022/05/17 03:06:52;;;;;;;;;;;15.90;99.90;;;;;;5074606;28;19908;-69
2022/05/17 03:09:18;;;;;;;;;;;15.90;99.90;;;;;;5073671;28;20002;-68
2022/05/17 03:11:43;;;;;;;;;;;15.80;99.90;;;;;;5074498;28;19916;-69
2022/05/17 03:14:09;;;;;;;;;;;15.90;99.90;;;;;;5074350;28;19914;-68
2022/05/17 03:16:35;;;;;;;;;;;15.90;99.90;;;;;;5074543;28;20293;-68
2022/05/17 03:19:01;;;;;;;;;;;15.90;99.90;;;;;;5074155;28;19920;-68
2022/05/17 03:21:26;;;;;;;;;;;15.90;99.90;;;;;;5073910;28;19961;-68
2022/05/17 03:23:52;;;;;;;;;;;15.80;99.90;;;;;;5074300;28;20336;-67
2022/05/17 03:26:18;;;;;;;;;;;15.90;99.90;;;;;;5056093;28;19908;-68
2022/05/17 03:28:43;;;;;;;;;;;15.90;99.90;;;;;;5073601;28;19916;-68
2022/05/17 03:31:09;;;;;;;;;;;15.90;99.90;;;;;;5073983;28;19932;-68
2022/05/17 03:33:34;;;;;;;;;;;15.80;99.90;;;;;;5073931;28;19951;-67
2022/05/17 03:36:00;;;;;;;;;;;15.80;99.90;;;;;;5074086;28;19963;-68
2022/05/17 03:38:25;;;;;;;;;;;15.80;99.90;;;;;;5073733;28;19908;-68
2022/05/17 03:40:52;;;;;;;;;;;15.80;99.90;;;;;;5073330;28;19912;-67
2022/05/17 03:43:19;;;;;;;;;;;15.90;99.90;;;;;;5073612;28;20289;-67
2022/05/17 03:45:45;;;;;;;;;;;15.80;99.90;;;;;;5073845;28;19919;-67
2022/05/17 03:48:11;;;;;;;;;;;15.80;99.90;;;;;;5073238;28;19931;-68
2022/05/17 03:50:37;;;;;;;;;;;15.70;99.90;;;;;;5072849;28;20301;-67
2022/05/17 03:53:03;;;;;;;;;;;15.60;99.90;;;;;;5073597;28;20374;-68
2022/05/17 03:55:28;;;;;;;;;;;15.60;99.90;;;;;;5073738;28;19908;-68
2022/05/17 03:57:54;;;;;;;;;;;15.40;99.90;;;;;;5073598;28;19955;-68
2022/05/17 04:00:19;;;;;;;;;;;15.40;99.90;;;;;;5073188;28;19908;-68
2022/05/17 04:02:45;;;;;;;;;;;15.40;99.90;;;;;;5072909;28;20268;-68
2022/05/17 04:05:10;;;;;;;;;;;15.50;99.90;;;;;;5072813;28;19920;-67
2022/05/17 04:07:36;;;;;;;;;;;15.60;99.90;;;;;;5073048;28;19912;-68
2022/05/17 04:10:02;;;;;;;;;;;15.60;99.90;;;;;;5072493;28;19979;-67
2022/05/17 04:12:27;;;;;;;;;;;15.60;99.90;;;;;;5072608;28;19951;-68
2022/05/17 04:14:53;;;;;;;;;;;15.60;99.90;;;;;;5070110;28;19999;-68
2022/05/17 04:17:19;;;;;;;;;;;15.60;99.90;;;;;;5072473;28;20300;-68
2022/05/17 04:19:44;;;;;;;;;;;15.60;99.90;;;;;;5071892;28;19919;-68
2022/05/17 04:22:11;;;;;;;;;;;15.60;99.90;;;;;;5071286;28;20390;-67
2022/05/17 04:24:41;;;;;;;;;;;15.70;99.90;;;;;;5072199;28;19912;-68
2022/05/17 04:27:07;;;;;;;;;;;15.70;99.90;;;;;;5072234;28;19919;-68
2022/05/17 04:29:32;;;;;;;;;;;15.70;99.90;;;;;;5076146;28;19916;-68
2022/05/17 04:31:58;;;;;;;;;;;15.60;99.90;;;;;;5071505;28;19992;-68
2022/05/17 04:34:23;;;;;;;;;;;15.70;99.90;;;;;;5070821;28;20011;-67
2022/05/17 04:36:49;;;;;;;;;;;15.70;99.90;;;;;;5071320;28;19999;-67
2022/05/17 04:39:14;;;;;;;;;;;15.60;99.90;;;;;;5071392;28;19987;-68
2022/05/17 04:41:40;;;;;;;;;;;15.70;99.90;;;;;;5070773;28;19908;-68
2022/05/17 04:44:05;;;;;;;;;;;15.70;99.90;;;;;;5071278;28;19917;-67
2022/05/17 04:46:30;;;;;;;;;;;15.70;99.90;;;;;;5070957;28;19909;-67
2022/05/17 04:48:56;;;;;;;;;;;15.80;99.90;;;;;;5070590;28;20393;-68
2022/05/17 04:53:52;;;;;;;;;;;16.00;99.90;;;;;;5086478;22;19960;-69
2022/05/17 04:56:19;;;;;;;;;;;16.00;99.90;;;;;;5072005;28;19955;-68
2022/05/17 04:58:44;;;;;;;;;;;16.00;99.90;;;;;;5054389;28;19920;-68
2022/05/17 05:01:10;;;;;;;;;;;16.00;99.90;;;;;;5051620;28;20547;-68
2022/05/17 05:03:35;;;;;;;;;;;16.10;99.90;;;;;;5052202;28;19908;-67
2022/05/17 05:06:01;;;;;;;;;;;16.10;99.90;;;;;;5051998;28;19967;-69
2022/05/17 05:08:27;;;;;;;;;;;16.10;99.90;;;;;;5052076;28;19912;-69
2022/05/17 05:10:52;;;;;;;;;;;16.20;99.90;;;;;;5047641;28;20003;-69
2022/05/17 05:13:18;;;;;;;;;;;16.30;99.90;;;;;;5061279;28;19913;-69
2022/05/17 05:15:44;;;;;;;;;;;16.40;99.90;;;;;;5057184;28;19909;-69
2022/05/17 05:18:10;;;;;;;;;;;16.40;99.90;;;;;;5049867;28;19919;-69
2022/05/17 05:20:36;;;;;;;;;;;16.50;99.90;;;;;;5060748;28;19920;-72
2022/05/17 05:23:01;;;;;;;;;;;16.50;99.90;;;;;;5064297;28;19947;-69
2022/05/17 05:25:27;;;;;;;;;;;16.60;99.90;;;;;;5049646;28;19913;-69
2022/05/17 05:27:54;;;;;;;;;;;16.70;99.90;;;;;;5049134;28;20270;-70
2022/05/17 05:30:19;;;;;;;;;;;16.70;99.90;;;;;;5059215;28;20365;-70
2022/05/17 05:32:46;;;;;;;;;;;16.60;99.90;;;;;;5071367;28;19913;-69
2022/05/17 05:35:13;;;;;;;;;;;16.80;99.90;;;;;;5070364;28;19912;-70
2022/05/17 05:37:39;;;;;;;;;;;16.80;99.90;;;;;;5065305;28;20381;-69
2022/05/17 05:40:06;;;;;;;;;;;16.90;99.90;;;;;;5049433;28;20429;-69
2022/05/17 05:42:31;;;;;;;;;;;16.90;99.90;;;;;;5050114;28;20004;-70
2022/05/17 05:44:57;;;;;;;;;;;17.00;99.90;;;;;;5051100;28;20003;-70
2022/05/17 05:47:22;;;;;;;;;;;17.00;99.90;;;;;;5063231;28;19920;-70
2022/05/17 05:49:47;;;;;;;;;;;17.00;99.90;;;;;;5055873;28;20297;-69
2022/05/17 05:52:13;;;;;;;;;;;17.10;99.90;;;;;;5053781;28;20369;-70
2022/05/17 05:54:38;;;;;;;;;;;17.20;99.90;;;;;;5059147;28;19913;-69
2022/05/17 05:57:04;;;;;;;;;;;17.20;99.90;;;;;;5073848;28;19908;-70
2022/05/17 05:59:30;;;;;;;;;;;17.20;99.90;;;;;;5064156;28;19912;-70
2022/05/17 06:01:55;;;;;;;;;;;17.30;99.90;;;;;;5054326;28;20289;-70
2022/05/17 06:04:21;;;;;;;;;;;17.30;99.90;;;;;;5054016;28;19915;-70
2022/05/17 06:06:46;;;;;;;;;;;17.30;99.90;;;;;;5054196;28;20358;-70
2022/05/17 06:09:12;;;;;;;;;;;17.40;99.90;;;;;;5052916;28;20251;-70
2022/05/17 06:11:37;;;;;;;;;;;17.40;99.90;;;;;;5054090;28;20004;-71
2022/05/17 06:14:03;;;;;;;;;;;17.50;99.90;;;;;;5054053;28;19995;-70
2022/05/17 06:16:28;;;;;;;;;;;17.60;99.90;;;;;;5054092;28;19909;-70
2022/05/17 06:18:54;;;;;;;;;;;17.70;99.90;;;;;;5053573;28;19962;-69
2022/05/17 06:21:19;;;;;;;;;;;17.70;99.90;;;;;;5060946;28;19909;-71
2022/05/17 06:23:45;;;;;;;;;;;17.80;99.90;;;;;;5073219;28;19909;-70
2022/05/17 06:26:10;;;;;;;;;;;17.90;99.90;;;;;;5055771;28;19917;-70
2022/05/17 06:28:36;;;;;;;;;;;17.90;99.90;;;;;;5052648;28;19979;-71
2022/05/17 06:31:01;;;;;;;;;;;18.00;99.90;;;;;;5052984;28;20435;-69
2022/05/17 06:33:27;;;;;;;;;;;18.10;99.90;;;;;;5053590;28;19909;-70
2022/05/17 06:35:53;;;;;;;;;;;18.10;99.90;;;;;;5051079;28;19960;-70
2022/05/17 06:38:18;;;;;;;;;;;18.20;99.90;;;;;;5032686;28;19909;-71
2022/05/17 06:40:44;;;;;;;;;;;18.30;99.90;;;;;;5033772;28;19996;-70
2022/05/17 06:43:10;;;;;;;;;;;18.40;99.90;;;;;;5033940;28;19968;-70
2022/05/17 06:45:36;;;;;;;;;;;18.40;99.90;;;;;;5034311;28;19955;-70
2022/05/17 06:48:02;;;;;;;;;;;18.50;99.90;;;;;;5051303;28;20306;-69
2022/05/17 06:50:28;;;;;;;;;;;18.50;99.90;;;;;;5035738;28;19909;-71
2022/05/17 06:52:53;;;;;;;;;;;18.60;99.90;;;;;;5053637;28;19939;-70
2022/05/17 06:55:19;;;;;;;;;;;18.50;99.90;;;;;;5053699;28;20109;-68
2022/05/17 06:57:44;;;;;;;;;;;18.60;99.90;;;;;;5053167;28;19952;-69
2022/05/17 07:00:12;;;;;;;;;;;18.70;99.90;;;;;;5053608;28;19917;-69
2022/05/17 07:02:38;;;;;;;;;;;18.70;99.90;;;;;;5053409;28;19909;-69
2022/05/17 07:05:04;;;;;;;;;;;18.80;99.90;;;;;;5053919;28;19931;-69
2022/05/17 07:07:29;;;;;;;;;;;18.80;99.90;;;;;;5053644;28;19912;-69
2022/05/17 07:15:23;;;;;;;;;;;18.90;99.90;;;;;;5054015;28;19915;-69
2022/05/17 07:17:49;;;;;;;;;;;19.00;99.90;;;;;;5053009;28;19984;-69
2022/05/17 07:20:15;;;;;;;;;;;19.00;99.90;;;;;;5052863;28;19923;-69
2022/05/17 07:22:40;;;;;;;;;;;19.10;99.90;;;;;;5072124;28;20391;-69
2022/05/17 07:25:06;;;;;;;;;;;19.20;99.90;;;;;;5073687;28;20282;-70
2022/05/17 07:27:32;;;;;;;;;;;19.40;99.90;;;;;;5073374;28;20000;-69
2022/05/17 07:29:57;;;;;;;;;;;19.30;99.90;;;;;;5061267;28;20011;-69
2022/05/17 07:32:23;;;;;;;;;;;19.40;99.90;;;;;;5052500;28;20257;-70
2022/05/17 07:34:48;;;;;;;;;;;19.60;99.90;;;;;;5053076;28;19956;-69
2022/05/17 07:37:14;;;;;;;;;;;19.70;99.90;;;;;;5051724;28;19913;-69
2022/05/17 07:39:40;;;;;;;;;;;19.90;99.90;;;;;;5052389;28;19923;-70
2022/05/17 07:42:06;;;;;;;;;;;20.00;99.90;;;;;;5052975;28;20003;-69
2022/05/17 07:44:31;;;;;;;;;;;20.20;99.90;;;;;;5051808;28;19999;-69
2022/05/17 07:46:57;;;;;;;;;;;20.30;99.90;;;;;;5053285;28;20350;-69
2022/05/17 07:49:23;;;;;;;;;;;20.50;99.90;;;;;;5052506;28;19913;-70
2022/05/17 07:51:48;;;;;;;;;;;20.50;99.90;;;;;;5052329;28;19912;-70
2022/05/17 07:54:14;;;;;;;;;;;20.50;99.90;;;;;;5053039;28;19913;-69
2022/05/17 07:56:39;;;;;;;;;;;20.60;99.90;;;;;;5053188;28;19909;-69
2022/05/17 07:59:05;;;;;;;;;;;20.70;99.90;;;;;;5052831;28;19913;-70
2022/05/17 08:01:30;;;;;;;;;;;20.90;99.90;;;;;;5052680;28;19923;-70
2022/05/17 08:03:56;;;;;;;;;;;21.00;99.90;;;;;;5053098;28;20382;-70
2022/05/17 08:06:21;;;;;;;;;;;21.00;99.90;;;;;;5052708;28;20366;-69
2022/05/17 08:08:47;;;;;;;;;;;20.90;99.90;;;;;;5051852;28;20278;-70
2022/05/17 08:11:12;;;;;;;;;;;20.80;99.90;;;;;;5052424;28;20316;-69
2022/05/17 08:13:38;;;;;;;;;;;20.90;99.90;;;;;;5052575;28;19919;-70
2022/05/17 08:16:04;;;;;;;;;;;21.10;99.90;;;;;;5052579;28;19908;-70
2022/05/17 08:18:30;;;;;;;;;;;21.20;99.90;;;;;;5052422;28;19939;-69
2022/05/17 08:20:56;;;;;;;;;;;21.10;99.90;;;;;;5056875;28;19943;-69
2022/05/17 08:23:21;;;;;;;;;;;21.20;99.90;;;;;;5059075;28;19913;-68
2022/05/17 08:28:31;;;;;;;;;;;21.20;99.90;;;;;;5052816;28;20439;-70
2022/05/17 08:30:56;;;;;;;;;;;21.30;99.90;;;;;;5052435;28;19913;-70
2022/05/17 08:33:26;;;;;;;;;;;21.50;99.90;;;;;;5051940;28;19913;-71
2022/05/17 08:35:55;;;;;;;;;;;21.50;99.90;;;;;;5052195;28;19927;-71
2022/05/17 08:38:23;;;;;;;;;;;21.70;99.90;;;;;;5052518;28;19962;-71
2022/05/17 08:40:51;;;;;;;;;;;21.80;99.90;;;;;;5051871;28;20501;-71
2022/05/17 08:43:23;;;;;;;;;;;21.90;99.90;;;;;;5050704;28;19909;-70
2022/05/17 08:45:59;;;;;;;;;;;21.80;99.90;;;;;;5051919;28;19916;-71
2022/05/17 08:48:26;;;;;;;;;;;21.90;99.90;;;;;;5051789;28;19924;-70
2022/05/17 08:50:52;;;;;;;;;;;21.80;99.90;;;;;;5051574;28;19919;-71
2022/05/17 08:53:18;;;;;;;;;;;21.60;99.90;;;;;;5051398;28;19917;-71
2022/05/17 08:55:44;;;;;;;;;;;21.60;99.90;;;;;;5052246;28;19915;-71
2022/05/17 08:58:29;;;;;;;;;;;21.60;99.90;;;;;;5052032;28;20663;-71
2022/05/17 09:01:06;;;;;;;;;;;21.80;99.90;;;;;;5051521;28;19962;-69
2022/05/17 09:03:38;;;;;;;;;;;21.80;99.90;;;;;;5051082;28;19975;-70
2022/05/17 09:06:20;;;;;;;;;;;21.70;99.90;;;;;;5051314;28;19909;-71
2022/05/17 09:08:53;;;;;;;;;;;21.80;99.90;;;;;;5051369;28;20349;-69
2022/05/17 09:11:25;;;;;;;;;;;21.90;99.90;;;;;;5052158;28;19913;-69
2022/05/17 09:13:58;;;;;;;;;;;22.20;99.90;;;;;;5051521;28;20391;-69
2022/05/17 09:16:25;;;;;;;;;;;22.30;99.90;;;;;;5051533;28;20417;-68
2022/05/17 09:18:51;;;;;;;;;;;22.50;99.90;;;;;;5050991;28;19990;-69
2022/05/17 09:21:42;;;;;;;;;;;22.60;99.90;;;;;;5058186;28;20373;-69
2022/05/17 09:24:11;;;;;;;;;;;22.80;99.90;;;;;;5069266;28;19908;-69
2022/05/17 09:26:37;;;;;;;;;;;22.80;99.90;;;;;;5071635;28;20285;-69
2022/05/17 09:29:11;;;;;;;;;;;22.70;99.90;;;;;;5066245;28;19968;-70
2022/05/17 09:31:37;;;;;;;;;;;22.90;99.90;;;;;;5050862;28;19909;-70
2022/05/17 09:34:06;;;;;;;;;;;23.00;99.90;;;;;;5051670;28;19996;-69
2022/05/17 09:36:48;;;;;;;;;;;23.00;99.90;;;;;;5051473;28;19948;-69
2022/05/17 09:39:18;;;;;;;;;;;23.10;99.90;;;;;;5050474;28;20374;-69
2022/05/17 09:41:43;;;;;;;;;;;23.20;99.80;;;;;;5051276;28;20328;-69
2022/05/17 09:44:13;;;;;;;;;;;23.20;98.80;;;;;;5051022;28;19920;-69
2022/05/17 09:46:43;;;;;;;;;;;23.00;99.20;;;;;;5051277;28;19909;-70
2022/05/17 09:54:50;;;;;;;;;;;23.30;99.00;;;;;;5051730;28;20365;-70
2022/05/17 09:57:25;;;;;;;;;;;23.30;98.00;;;;;;5051312;28;19912;-70
2022/05/17 09:59:55;;;;;;;;;;;23.40;98.40;;;;;;5051377;28;19917;-70
2022/05/17 10:02:29;;;;;;;;;;;23.30;98.70;;;;;;5050857;28;19928;-70
2022/05/17 10:04:59;;;;;;;;;;;23.30;98.60;;;;;;5051007;28;19916;-70
2022/05/17 10:07:29;;;;;;;;;;;23.30;98.30;;;;;;5051142;28;19909;-70
2022/05/17 10:09:54;;;;;;;;;;;23.30;97.90;;;;;;5050415;28;19913;-69
2022/05/17 10:12:27;;;;;;;;;;;23.20;97.30;;;;;;5049322;28;19951;-70
2022/05/17 10:14:54;;;;;;;;;;;23.00;97.30;;;;;;5049639;28;19996;-70
2022/05/17 10:17:36;;;;;;;;;;;23.10;97.40;;;;;;5049742;28;19912;-69
2022/05/17 10:20:06;;;;;;;;;;;23.10;97.20;;;;;;5050208;28;19912;-70
2022/05/17 10:22:51;;;;;;;;;;;23.00;96.70;;;;;;5044764;28;19916;-70
2022/05/17 10:25:35;;;;;;;;;;;22.80;97.80;;;;;;5063478;28;19927;-70
2022/05/17 10:28:03;;;;;;;;;;;23.00;98.30;;;;;;5069848;28;20512;-69
2022/05/17 10:30:41;;;;;;;;;;;23.20;98.20;;;;;;5070334;28;19909;-69
2022/05/17 10:33:10;;;;;;;;;;;23.20;98.10;;;;;;5066114;28;19952;-70
2022/05/17 10:35:38;;;;;;;;;;;23.00;98.00;;;;;;5053661;28;19909;-69
2022/05/17 10:38:11;;;;;;;;;;;22.90;98.50;;;;;;5053016;28;19908;-71
2022/05/17 10:40:43;;;;;;;;;;;23.00;98.10;;;;;;5053584;28;20289;-70
2022/05/17 10:43:10;;;;;;;;;;;23.10;97.80;;;;;;5053709;28;19909;-69
2022/05/17 10:45:36;;;;;;;;;;;23.30;98.00;;;;;;5054720;28;19915;-69
2022/05/17 10:48:13;;;;;;;;;;;23.40;98.00;;;;;;5052872;28;19909;-69
2022/05/17 10:50:57;;;;;;;;;;;23.60;97.70;;;;;;5054961;28;19990;-69
2022/05/17 10:53:41;;;;;;;;;;;23.60;97.40;;;;;;5054994;28;20323;-69
2022/05/17 10:56:13;;;;;;;;;;;23.80;96.90;;;;;;5054261;28;19909;-69
2022/05/17 10:58:38;;;;;;;;;;;23.90;96.40;;;;;;5053575;28;19938;-69
2022/05/17 11:01:13;;;;;;;;;;;24.00;96.30;;;;;;5055048;28;20007;-69
2022/05/17 11:03:54;;;;;;;;;;;24.10;96.20;;;;;;5053615;28;19915;-70
2022/05/17 11:06:36;;;;;;;;;;;24.30;95.90;;;;;;5054174;28;19955;-71
2022/05/17 11:09:01;;;;;;;;;;;24.40;95.80;;;;;;5052503;28;20382;-69
2022/05/17 11:11:30;;;;;;;;;;;24.60;95.80;;;;;;5054495;28;20008;-69
2022/05/17 11:14:01;;;;;;;;;;;24.70;95.60;;;;;;5053846;28;19916;-69
2022/05/17 11:16:27;;;;;;;;;;;24.80;95.30;;;;;;5054057;28;20001;-69
2022/05/17 11:18:59;;;;;;;;;;;24.90;95.00;;;;;;5052243;28;19951;-70
2022/05/17 11:21:27;;;;;;;;;;;24.90;95.10;;;;;;5062288;28;19908;-70
2022/05/17 11:24:14;;;;;;;;;;;24.70;94.90;;;;;;5074339;28;19912;-70
2022/05/17 11:27:02;;;;;;;;;;;24.80;94.90;;;;;;5074017;28;19916;-69
2022/05/17 11:29:42;;;;;;;;;;;24.90;94.50;;;;;;5065651;28;19959;-69
2022/05/17 11:32:23;;;;;;;;;;;24.50;93.20;;;;;;5053694;28;19909;-69
2022/05/17 11:34:49;;;;;;;;;;;24.40;93.90;;;;;;5053989;28;19909;-70
2022/05/17 11:37:32;;;;;;;;;;;24.60;94.20;;;;;;5053890;28;19909;-68
2022/05/17 11:39:59;;;;;;;;;;;24.50;92.40;;;;;;5053180;28;19913;-70
2022/05/17 11:42:24;;;;;;;;;;;24.70;92.60;;;;;;5053024;28;20320;-68
2022/05/17 11:44:50;;;;;;;;;;;24.90;92.30;;;;;;5052862;28;19999;-70
2022/05/17 11:47:34;;;;;;;;;;;25.00;91.30;;;;;;5053675;28;19994;-69
2022/05/17 11:50:09;;;;;;;;;;;25.10;90.40;;;;;;5052898;28;19916;-70
2022/05/17 11:52:36;;;;;;;;;;;25.20;89.20;;;;;;5033517;28;20365;-70
2022/05/17 11:55:02;;;;;;;;;;;25.20;88.10;;;;;;5033561;28;20374;-71
2022/05/17 11:57:27;;;;;;;;;;;25.30;88.20;;;;;;5015619;28;19935;-71
2022/05/17 11:59:54;;;;;;;;;;;25.30;88.30;;;;;;5033309;28;19916;-70
2022/05/17 12:02:39;;;;;;;;;;;25.30;88.40;;;;;;5048643;28;19924;-71
2022/05/17 12:05:06;;;;;;;;;;;24.90;86.90;;;;;;5053567;28;19916;-70
2022/05/17 12:07:32;;;;;;;;;;;24.80;88.00;;;;;;5053349;28;19909;-70
2022/05/17 12:10:08;;;;;;;;;;;24.90;87.30;;;;;;5053093;28;19920;-70
2022/05/17 12:12:34;;;;;;;;;;;24.90;87.40;;;;;;5052485;28;20352;-70
2022/05/17 12:15:22;;;;;;;;;;;24.80;87.50;;;;;;5053305;28;19956;-69
2022/05/17 12:17:56;;;;;;;;;;;24.80;88.00;;;;;;5053319;28;19931;-70
2022/05/17 12:20:29;;;;;;;;;;;24.70;88.60;;;;;;5052660;28;20005;-70
2022/05/17 12:23:11;;;;;;;;;;;24.30;88.80;;;;;;5041936;28;19913;-70
2022/05/17 12:25:44;;;;;;;;;;;24.20;90.00;;;;;;5053624;28;19999;-70
2022/05/17 12:28:11;;;;;;;;;;;24.10;90.10;;;;;;5052779;28;19909;-70
2022/05/17 12:30:59;;;;;;;;;;;24.20;90.30;;;;;;5052548;28;19968;-70
2022/05/17 12:33:25;;;;;;;;;;;24.20;90.10;;;;;;5052459;28;20266;-70
2022/05/17 12:35:52;;;;;;;;;;;24.20;90.00;;;;;;5052466;28;19931;-70
2022/05/17 12:44:04;;;;;;;;;;;24.30;90.60;;;;;;5052870;28;19971;-70
2022/05/17 12:46:31;;;;;;;;;;;24.30;90.90;;;;;;5052340;28;20000;-71
2022/05/17 12:48:58;;;;;;;;;;;24.40;91.20;;;;;;5052609;28;20377;-71
2022/05/17 12:51:24;;;;;;;;;;;24.40;91.70;;;;;;5052473;28;19909;-70
2022/05/17 12:53:54;;;;;;;;;;;24.30;91.60;;;;;;5052315;28;19920;-71
2022/05/17 12:56:19;;;;;;;;;;;24.30;92.10;;;;;;5050862;28;19931;-72
2022/05/17 12:58:50;;;;;;;;;;;24.40;91.90;;;;;;5052103;28;19921;-72
2022/05/17 13:01:25;;;;;;;;;;;24.50;92.20;;;;;;5052367;28;19909;-71
2022/05/17 13:03:53;;;;;;;;;;;24.50;92.30;;;;;;5051757;28;19917;-71
2022/05/17 13:06:19;;;;;;;;;;;24.50;92.40;;;;;;5052517;28;19909;-72
2022/05/17 13:08:45;;;;;;;;;;;24.50;92.60;;;;;;5052084;28;19917;-72
2022/05/17 13:11:18;;;;;;;;;;;24.50;92.60;;;;;;5051776;28;20301;-71
2022/05/17 13:13:44;;;;;;;;;;;24.50;92.90;;;;;;5052321;28;19909;-72
2022/05/17 13:16:10;;;;;;;;;;;24.50;93.10;;;;;;5052071;28;19931;-71
2022/05/17 13:18:39;;;;;;;;;;;24.60;93.10;;;;;;5051485;28;19913;-72
2022/05/17 13:21:07;;;;;;;;;;;24.70;92.80;;;;;;5057382;28;19908;-72
2022/05/17 13:23:33;;;;;;;;;;;24.80;92.80;;;;;;5072468;28;20003;-72
2022/05/17 13:26:00;;;;;;;;;;;25.00;92.60;;;;;;5054003;28;19909;-72
2022/05/17 13:28:27;;;;;;;;;;;25.20;92.00;;;;;;5072192;28;19935;-72
2022/05/17 13:31:01;;;;;;;;;;;25.30;91.80;;;;;;5052542;28;20002;-72
2022/05/17 13:33:31;;;;;;;;;;;25.50;91.40;;;;;;5051915;28;19909;-72
2022/05/17 13:36:08;;;;;;;;;;;25.50;91.20;;;;;;5051803;28;19916;-71
2022/05/17 13:38:37;;;;;;;;;;;25.40;91.20;;;;;;5051946;28;20324;-71
2022/05/17 13:41:06;;;;;;;;;;;25.40;91.10;;;;;;5048392;28;19912;-71
2022/05/17 13:43:31;;;;;;;;;;;25.40;91.40;;;;;;5051394;28;20399;-72
2022/05/17 13:45:56;;;;;;;;;;;25.40;91.40;;;;;;5051457;28;19940;-71
2022/05/17 13:48:22;;;;;;;;;;;25.50;91.30;;;;;;5047850;28;19960;-71
2022/05/17 13:50:52;;;;;;;;;;;25.60;91.10;;;;;;5049731;28;19986;-71
2022/05/17 13:53:20;;;;;;;;;;;25.70;90.80;;;;;;5051694;28;20016;-71
2022/05/17 13:55:45;;;;;;;;;;;25.90;90.90;;;;;;5042486;28;19971;-71
2022/05/17 13:58:11;;;;;;;;;;;25.80;91.00;;;;;;5045873;28;19917;-71
2022/05/17 14:00:55;;;;;;;;;;;25.80;91.30;;;;;;5029992;28;19966;-71
2022/05/17 14:03:22;;;;;;;;;;;25.90;91.40;;;;;;5046294;28;19917;-71
2022/05/17 14:05:50;;;;;;;;;;;26.10;91.40;;;;;;5052194;28;19916;-71
2022/05/17 14:14:00;;;;;;;;;;;26.10;90.30;;;;;;5040930;28;20285;-72
2022/05/17 14:16:28;;;;;;;;;;;26.20;90.00;;;;;;5036490;28;19981;-72
2022/05/17 14:18:54;;;;;;;;;;;26.30;89.70;;;;;;5029924;28;20027;-72
2022/05/17 14:21:19;;;;;;;;;;;26.40;89.40;;;;;;5044970;28;20685;-72
2022/05/17 14:23:51;;;;;;;;;;;26.50;89.10;;;;;;5054086;28;20377;-70
2022/05/17 14:26:19;;;;;;;;;;;26.60;88.50;;;;;;5047394;28;19913;-72
2022/05/17 14:28:45;;;;;;;;;;;26.60;88.50;;;;;;5049599;28;19912;-71
2022/05/17 14:31:14;;;;;;;;;;;26.70;87.80;;;;;;5051088;28;19923;-71
2022/05/17 14:33:39;;;;;;;;;;;26.80;87.60;;;;;;5052727;28;19913;-71
2022/05/17 14:36:06;;;;;;;;;;;26.80;87.10;;;;;;5052357;28;19920;-71
2022/05/17 14:38:32;;;;;;;;;;;26.90;86.40;;;;;;5052723;28;19909;-71
2022/05/17 14:40:57;;;;;;;;;;;26.90;86.10;;;;;;5054000;28;19915;-72
2022/05/17 14:43:23;;;;;;;;;;;26.90;86.50;;;;;;5054886;28;19909;-72
2022/05/17 14:45:52;;;;;;;;;;;27.00;84.90;;;;;;5054889;28;20365;-71
2022/05/17 14:48:19;;;;;;;;;;;26.90;83.40;;;;;;5054340;28;19928;-71